createdAt,value
2018-05-03T18:52:46.076Z,47.27
2018-05-03T18:54:47.514Z,49.29
2018-05-03T18:56:48.916Z,48.71
2018-05-03T18:58:50.339Z,48.78
2018-05-03T19:00:51.845Z,48.49
2018-05-03T19:02:53.254Z,50.32
2018-05-03T19:04:54.734Z,51.28
2018-05-03T19:06:56.125Z,50.99
2018-05-03T19:08:57.622Z,51.08
2018-05-03T19:10:59.033Z,51.75
2018-05-03T19:13:00.478Z,52.62
2018-05-03T19:15:01.875Z,52.14
2018-05-03T19:17:03.294Z,52.14
2018-05-03T19:19:04.824Z,52.04
2018-05-03T19:21:06.240Z,53.00
2018-05-03T19:23:07.659Z,53.28
2018-05-03T19:25:09.079Z,53.36
2018-05-03T19:27:10.501Z,54.12
2018-05-03T19:29:11.924Z,52.87
2018-05-03T19:31:13.343Z,53.16
2018-05-03T19:33:14.764Z,53.45
2018-05-03T19:35:16.187Z,53.07
2018-05-03T19:37:17.611Z,54.12
2018-05-03T19:39:19.029Z,53.26
2018-05-03T19:41:20.455Z,54.22
2018-05-03T19:43:21.944Z,52.97
2018-05-03T19:45:23.299Z,53.83
2018-05-03T19:47:24.716Z,53.93
2018-05-03T19:49:26.141Z,54.12
2018-05-03T19:51:27.561Z,55.08
2018-05-03T19:53:28.985Z,55.18
2018-05-03T19:55:30.409Z,55.27
2018-05-03T19:57:31.835Z,55.18
2018-05-03T19:59:33.253Z,55.08
2018-05-03T20:01:34.672Z,55.73
2018-05-03T20:03:36.168Z,56.39
2018-05-03T20:05:37.509Z,55.73
2018-05-03T20:07:38.932Z,56.30
2018-05-03T20:09:40.356Z,56.77
2018-05-03T20:11:41.775Z,56.59
2018-05-03T20:13:43.235Z,57.06
2018-05-03T20:15:44.646Z,56.77
2018-05-03T20:17:46.065Z,57.73
2018-05-03T20:19:47.486Z,57.83
2018-05-03T20:21:48.922Z,57.06
2018-05-03T20:23:50.331Z,56.97
2018-05-03T20:25:51.754Z,57.45
2018-05-03T20:27:53.176Z,56.87
2018-05-03T20:29:54.594Z,57.06
2018-05-03T20:31:56.015Z,57.83
2018-05-03T20:33:57.436Z,58.22
2018-05-03T20:35:58.852Z,58.50
2018-05-03T20:38:00.270Z,58.50
2018-05-03T20:40:01.693Z,58.56
2018-05-03T20:42:03.116Z,58.18
2018-05-03T20:44:04.531Z,58.88
2018-05-03T20:46:06.030Z,58.47
2018-05-03T20:48:07.374Z,58.66
2018-05-03T20:50:08.793Z,58.09
2018-05-03T20:52:10.213Z,58.66
2018-05-03T20:54:11.631Z,58.28
2018-05-03T20:56:13.143Z,58.28
2018-05-03T20:58:14.563Z,58.18
2018-05-03T21:00:15.996Z,58.66
2018-05-03T21:02:17.404Z,58.95
2018-05-03T21:04:18.821Z,58.56
2018-05-03T21:06:20.243Z,58.95
2018-05-03T21:08:21.672Z,59.01
2018-05-03T21:10:23.083Z,59.40
2018-05-03T21:12:24.505Z,59.30
2018-05-03T21:14:25.927Z,59.88
2018-05-03T21:16:27.345Z,59.49
2018-05-03T21:18:28.770Z,59.88
2018-05-03T21:20:30.193Z,60.55
2018-05-03T21:22:31.614Z,59.59
2018-05-03T21:24:33.031Z,59.69
2018-05-03T21:26:34.454Z,59.01
2018-05-03T21:28:35.943Z,60.26
2018-05-03T21:30:37.289Z,59.97
2018-05-03T21:32:38.714Z,59.40
2018-05-03T21:34:40.144Z,58.80
2018-05-03T21:36:41.552Z,58.80
2018-05-03T21:38:42.981Z,59.66
2018-05-03T21:40:44.398Z,60.13
2018-05-03T21:42:45.819Z,60.71
2018-05-03T21:44:47.231Z,60.52
2018-05-03T21:46:48.651Z,60.52
2018-05-03T21:48:50.067Z,59.56
2018-05-03T21:50:51.500Z,60.13
2018-05-03T21:52:52.901Z,60.61
2018-05-03T21:54:54.320Z,60.71
2018-05-03T21:56:55.738Z,61.19
2018-05-03T21:58:57.157Z,60.90
2018-05-03T22:00:58.578Z,60.77
2018-05-03T22:02:59.996Z,61.82
2018-05-03T22:05:01.415Z,61.92
2018-05-03T22:07:02.849Z,62.30
2018-05-03T22:09:04.249Z,62.01
2018-05-03T22:11:05.669Z,62.01
2018-05-03T22:13:07.090Z,62.40
2018-05-03T22:15:08.510Z,62.21
2018-05-03T22:17:09.919Z,62.97
2018-05-03T22:19:11.339Z,63.07
2018-05-03T22:21:12.757Z,63.16
2018-05-03T22:23:14.177Z,62.87
2018-05-03T22:25:15.605Z,63.16
2018-05-03T22:27:17.022Z,63.07
2018-05-03T22:29:18.439Z,63.32
2018-05-03T22:31:19.861Z,63.13
2018-05-03T22:33:21.275Z,63.51
2018-05-03T22:35:22.691Z,63.51
2018-05-03T22:37:24.110Z,63.32
2018-05-03T22:39:25.527Z,63.51
2018-05-03T22:41:26.950Z,63.03
2018-05-03T22:43:28.366Z,63.70
2018-05-03T22:45:29.781Z,63.32
2018-05-03T22:47:31.197Z,63.13
2018-05-03T22:49:32.616Z,63.89
2018-05-03T22:51:34.035Z,63.51
2018-05-03T22:53:35.454Z,63.99
2018-05-03T22:55:36.873Z,64.56
2018-05-03T22:57:38.288Z,63.60
2018-05-03T22:59:39.727Z,64.15
2018-05-03T23:01:41.131Z,64.37
2018-05-03T23:03:42.550Z,64.43
2018-05-03T23:05:43.968Z,64.43
2018-05-03T23:07:45.384Z,64.34
2018-05-03T23:09:46.802Z,64.25
2018-05-03T23:11:48.219Z,64.34
2018-05-03T23:13:49.638Z,64.81
2018-05-03T23:15:51.049Z,65.01
2018-05-03T23:17:52.464Z,64.91
2018-05-03T23:19:53.880Z,64.72
2018-05-03T23:21:55.298Z,64.91
2018-05-03T23:23:56.716Z,64.72
2018-05-03T23:25:58.130Z,64.81
2018-05-03T23:27:59.545Z,65.39
2018-05-03T23:30:00.961Z,65.36
2018-05-03T23:32:02.378Z,65.77
2018-05-03T23:34:03.792Z,65.17
2018-05-03T23:36:05.206Z,65.77
2018-05-03T23:38:06.625Z,64.78
2018-05-03T23:40:08.048Z,64.78
2018-05-03T23:42:09.457Z,64.69
2018-05-03T23:44:10.873Z,65.45
2018-05-03T23:46:12.290Z,65.36
2018-05-03T23:48:13.701Z,65.55
2018-05-03T23:50:15.123Z,65.45
2018-05-03T23:52:16.542Z,65.83
2018-05-03T23:54:17.959Z,66.02
2018-05-03T23:56:19.378Z,66.02
2018-05-03T23:58:20.799Z,66.12
